• Join FlightAware (Why Join?)
  • Login
  • US Flag 
10:25AM EST


 

Airport Tracker/Info


-or-


 

Live Flight TrackerFlight Track Log ✈ USC105 ✈ 07-May-2013 ✈ KDPA - KYIP

Flight Track Log - Related Links

Times and Time Zones

All times are in EDT time to prevent confusion due to time zone crossing. See the USC105 flight status page for this flight to view local times or setup timezone preferences in your user account.

Time Position Orientation Groundspeed Altitude Reporting Facility
EDT Latitude Longitude Course Direction KTS MPH feet Rate Location/Type
05:28AM 41.8500 -88.2667 151° Southeast 129 148 2,400  Level Chicago TRACON
05:29AM 41.8167 -88.2667 180° South 128 147 3,600 1,020 Climbing Chicago TRACON
05:30AM 41.8036 -88.2614 163° South 127 146 4,200 1,020 Climbing Chicago Center
05:31AM 41.7664 -88.2589 177° South 131 151 5,400 1,080 Climbing Chicago Center
05:32AM 41.7350 -88.2347 150° Southeast 144 166 6,400 840 Climbing Chicago Center
05:33AM 41.9350 -87.9377 151° Southeast  Level Estimated
05:33AM 41.7131 -88.1903 123° Southeast 144 166 7,100  Level Chicago Center
05:34AM 41.7206 -88.1219 82° East 190 219 7,100 -60 Level Chicago Center
05:35AM 41.7369 -88.0542 72° East 191 220 7,000 -60 Descending Chicago Center
05:36AM 41.7597 -87.9742 69° East 191 220 7,000  Level Chicago Center
05:37AM 41.7681 -87.9039 81° East 193 222 7,100  Climbing Chicago Center
05:38AM 41.7756 -87.8344 82° East 189 217 7,000 -60 Descending Chicago Center
05:39AM 41.7825 -87.7683 82° East 182 209 7,000  Level Chicago Center
05:40AM 41.7914 -87.6992 80° East 187 215 7,000  Level Chicago Center
05:41AM 41.8003 -87.6306 80° East 188 216 7,000  Level Chicago Center
05:42AM 41.8078 -87.5636 81° East 184 212 7,000  Level Chicago Center
05:43AM 41.8172 -87.4953 79° East 185 213 7,000  Level Chicago Center
05:44AM 41.8247 -87.4250 82° East 189 217 7,000  Level Chicago Center
05:45AM 41.8342 -87.3567 79° East 188 216 7,000  Level Chicago Center
05:46AM 41.8414 -87.2883 82° East 187 215 7,000  Level Chicago Center
05:47AM 41.8500 -87.2203 80° East 187 215 7,000  Level Chicago Center
05:48AM 41.8597 -87.1539 79° East 184 212 7,000  Level Chicago Center
05:49AM 41.8672 -87.0861 82° East 184 212 7,000  Level Chicago Center
05:50AM 41.8750 -87.0181 81° East 185 213 7,000  Level Chicago Center
05:51AM 41.8836 -86.9508 80° East 185 213 7,000  Level Chicago Center
05:52AM 41.8911 -86.8833 81° East 184 212 7,000  Level Chicago Center
05:53AM 41.8989 -86.8156 81° East 185 213 7,000  Level Chicago Center
05:54AM 41.9064 -86.7478 82° East 184 212 7,000  Level Chicago Center
05:55AM 41.9142 -86.6794 81° East 184 212 7,000  Level Chicago Center
05:56AM 41.9219 -86.6125 81° East 183 211 7,000  Level Chicago Center
05:57AM 41.9303 -86.5456 80° East 183 211 7,000  Level Chicago Center
05:58AM 41.9372 -86.4786 82° East 181 208 7,000  Level Chicago Center
05:59AM 41.9461 -86.4131 80° East 180 207 7,000  Level Chicago Center
06:00AM 41.9542 -86.3314 82° East 182 209 7,000  Level Chicago Center
06:01AM 41.9614 -86.2650 82° East 180 207 7,000  Level Chicago Center
06:02AM 41.9692 -86.1992 81° East 179 206 7,000  Level Chicago Center
06:03AM 41.9769 -86.1328 81° East 179 206 7,000  Level Chicago Center
06:04AM 41.9836 -86.0667 82° East 179 206 7,000  Level Chicago Center
06:05AM 41.9917 -86.0025 80° East 176 203 7,000  Level Chicago Center
06:06AM 41.9983 -85.9356 82° East 179 206 7,000  Level Chicago Center
06:07AM 42.0064 -85.8689 81° East 179 206 7,000  Level Chicago Center
06:08AM 42.0133 -85.8025 82° East 179 206 7,000  Level Chicago Center
06:09AM 42.0214 -85.7350 81° East 181 208 7,000  Level Chicago Center
06:10AM 42.0283 -85.6675 82° East 181 208 7,000  Level Chicago Center
06:11AM 42.0350 -85.5997 82° East 182 209 7,000  Level Chicago Center
06:12AM 42.0431 -85.5328 81° East 182 209 7,000  Level Chicago Center
06:13AM 42.0503 -85.4653 82° East 182 209 7,000  Level Chicago Center
06:14AM 42.0569 -85.3975 82° East 182 209 7,000  Level Chicago Center
06:15AM 42.0639 -85.3300 82° East 182 209 7,000  Level Chicago Center
06:16AM 42.0706 -85.2631 82° East 181 208 7,100  Climbing Chicago Center
06:17AM 42.0775 -85.1953 82° East 181 208 7,000 -60 Descending Chicago Center
06:18AM 42.0842 -85.1275 82° East 183 211 7,000  Level Chicago Center
06:19AM 42.0917 -85.0611 81° East 181 208 7,000  Level Chicago Center
06:20AM 42.0983 -84.9933 82° East 180 207 7,000  Level Chicago Center
06:21AM 42.1050 -84.9267 82° East 181 208 7,000  Level Chicago Center
06:22AM 42.1119 -84.8594 82° East 181 208 7,000  Level Chicago Center
06:23AM 42.1189 -84.7931 82° East 180 207 7,000 -300 Level Chicago Center
06:24AM 42.1253 -84.7247 83° East 182 209 6,500 -540 Descending Chicago Center
06:25AM 42.1325 -84.6525 82° East 191 220 6,000 -540 Descending Chicago Center
06:26AM 42.1397 -84.5800 82° East 194 223 5,500 -540 Descending Chicago Center
06:27AM 42.1478 -84.5044 82° East 193 222 5,000 -300 Descending Chicago Center
06:28AM 42.1539 -84.4364 83° East 187 215 5,000  Level Chicago Center
06:29AM 42.1603 -84.3719 82° East 179 206 5,100  Climbing Chicago Center
06:30AM 42.1636 -84.3261 84° East 175 201 5,000 -60 Descending Cleveland Center
06:31AM 42.1703 -84.2508 83° East 175 201 5,000  Level Cleveland Center
06:32AM 42.1764 -84.1922 82° East 175 201 5,100  Climbing Cleveland Center
06:33AM 42.1831 -84.1058 84° East 174 200 5,100 -60 Level Cleveland Center
06:34AM 42.1892 -84.0444 82° East 172 198 5,000 -420 Descending Cleveland Center
06:35AM 42.1972 -83.9831 80° East 186 214 4,400 -600 Descending Cleveland Center
06:36AM 42.2036 -83.9078 83° East 185 213 3,800 -540 Descending Cleveland Center
06:37AM 42.2078 -83.8406 85° East 181 208 3,300 -480 Descending Cleveland Center
06:38AM 42.2131 -83.7933 81° East 183 211 3,000 -180 Descending Cleveland Center
06:39AM 42.2194 -83.7178 83° East 161 185 3,000 -300 Level Cleveland Center
06:41AM 42.2283 -83.6217 83° East  Level FlightAware Approximate
06:41AM 42.1869 -83.6097 83° East 161 185 2,100  Level Cleveland Center
06:42AM 42.2172 -83.5636 48° Northeast 156 180 1,400 -720 Descending Cleveland Center
06:44AM 42.2333 -83.5167 90° East  Level FlightAware Approximate
06:51AM 42.2393 -83.5310 90° East  Level Estimated
06:52AM 42.2393 -83.5310 90° East  Level Estimated